Time;durP1;ratioP1;P1;durP2;ratioP2;P2;SDS_P1;SDS_P2;PMS_P1;PMS_P2;Temp;Humidity;BMP_temperature;BMP_pressure;BME280_temperature;BME280_humidity;BME280_pressure;Samples;Min_cycle;Max_cycle;Signal;HPM_P1;HPM_P2
2022/12/14 00:01:38;;;;;;;35.90;18.60;;;8.70;48.60;;;;;;5053523;28;20512;-82
2022/12/14 00:04:08;;;;;;;35.47;18.43;;;8.70;48.60;;;;;;5054331;28;20454;-80
2022/12/14 00:06:35;;;;;;;32.23;17.30;;;8.70;48.60;;;;;;5055097;28;20466;-82
2022/12/14 00:09:04;;;;;;;32.60;16.73;;;8.70;48.40;;;;;;5051600;28;20485;-81
2022/12/14 00:11:32;;;;;;;34.10;17.37;;;8.70;48.40;;;;;;5052413;28;20480;-81
2022/12/14 00:14:00;;;;;;;33.70;17.30;;;8.70;48.40;;;;;;5057217;28;20458;-80
2022/12/14 00:16:29;;;;;;;32.30;17.07;;;8.70;48.40;;;;;;5052702;28;20490;-80
2022/12/14 00:18:58;;;;;;;35.30;18.10;;;8.60;48.40;;;;;;5055220;28;20540;-81
2022/12/14 00:21:27;;;;;;;35.27;18.37;;;8.70;48.50;;;;;;5053826;28;20450;-80
2022/12/14 00:23:55;;;;;;;33.30;16.77;;;8.70;48.40;;;;;;5049074;28;20450;-80
2022/12/14 00:26:24;;;;;;;35.50;17.30;;;8.60;48.30;;;;;;5050250;28;20474;-80
2022/12/14 00:28:53;;;;;;;36.27;18.37;;;8.60;48.30;;;;;;5047623;28;20466;-80
2022/12/14 00:31:21;;;;;;;30.20;16.00;;;8.60;48.30;;;;;;5054906;28;20446;-79
2022/12/14 00:33:50;;;;;;;33.07;16.30;;;8.60;48.30;;;;;;5052424;28;20454;-80
2022/12/14 00:36:18;;;;;;;32.53;16.97;;;8.60;48.30;;;;;;5051077;28;20486;-79
2022/12/14 00:38:47;;;;;;;31.90;16.63;;;8.60;48.30;;;;;;5053500;28;20505;-79
2022/12/14 00:41:15;;;;;;;33.43;16.50;;;8.60;48.30;;;;;;5054606;28;20467;-80
2022/12/14 00:43:44;;;;;;;33.50;16.27;;;8.60;48.30;;;;;;5050452;28;20450;-79
2022/12/14 00:46:16;;;;;;;31.30;16.30;;;8.60;48.30;;;;;;5048224;28;20508;-80
2022/12/14 00:48:45;;;;;;;28.50;15.13;;;8.60;48.40;;;;;;5050529;28;20470;-80
2022/12/14 00:51:19;;;;;;;41.50;20.20;;;8.60;48.30;;;;;;5053308;28;20949;-80
2022/12/14 00:53:48;;;;;;;38.97;19.80;;;8.60;48.30;;;;;;5051829;28;20430;-80
2022/12/14 00:56:16;;;;;;;36.17;18.53;;;8.60;48.30;;;;;;5059759;28;20474;-81
2022/12/14 00:58:49;;;;;;;32.83;17.97;;;8.60;48.30;;;;;;5044652;28;20486;-80
2022/12/14 01:01:17;;;;;;;44.27;19.93;;;8.60;48.30;;;;;;5051571;28;20454;-80
2022/12/14 01:03:45;;;;;;;35.17;18.37;;;8.60;48.30;;;;;;5049159;28;20640;-80
2022/12/14 01:06:14;;;;;;;36.30;17.87;;;8.60;48.30;;;;;;5055405;28;20466;-80
2022/12/14 01:08:42;;;;;;;34.87;18.77;;;8.50;48.40;;;;;;5054952;28;20553;-80
2022/12/14 01:11:14;;;;;;;37.77;18.83;;;8.50;48.30;;;;;;5054762;28;20446;-80
2022/12/14 01:13:42;;;;;;;33.33;17.30;;;8.50;48.40;;;;;;5038147;28;20427;-80
2022/12/14 01:16:11;;;;;;;33.27;17.47;;;8.50;48.40;;;;;;5054717;28;20470;-80
2022/12/14 01:18:40;;;;;;;35.30;17.57;;;8.50;48.30;;;;;;5136422;22;20507;-80
2022/12/14 01:21:10;;;;;;;33.03;17.87;;;8.50;48.80;;;;;;5053553;28;20443;-80
2022/12/14 01:23:38;;;;;;;37.53;18.50;;;8.50;48.40;;;;;;5050365;28;20446;-80
2022/12/14 01:26:08;;;;;;;32.83;16.57;;;8.50;48.30;;;;;;5049886;28;20447;-80
2022/12/14 01:28:37;;;;;;;32.07;16.63;;;8.50;48.10;;;;;;5035051;28;20470;-80
2022/12/14 01:31:07;;;;;;;33.27;16.83;;;8.50;48.30;;;;;;5044399;28;20446;-80
2022/12/14 01:33:35;;;;;;;33.93;17.00;;;8.50;48.30;;;;;;5047623;28;20471;-80
2022/12/14 01:36:07;;;;;;;32.60;17.33;;;8.50;48.20;;;;;;5051179;28;20463;-81
2022/12/14 01:38:34;;;;;;;33.60;17.73;;;8.50;48.30;;;;;;5050082;28;20465;-81
2022/12/14 01:41:02;;;;;;;35.07;16.93;;;8.50;48.30;;;;;;5058130;28;20445;-80
2022/12/14 01:56:47;;;;;;;27.40;14.53;;;8.40;48.20;;;;;;5090632;28;20534;-79
2022/12/14 01:59:17;;;;;;;28.87;14.50;;;8.40;48.10;;;;;;5053442;28;20524;-80
2022/12/14 02:01:45;;;;;;;30.67;15.50;;;8.30;48.10;;;;;;5064101;28;20442;-79
2022/12/14 02:04:15;;;;;;;30.70;16.13;;;8.30;48.10;;;;;;5055226;28;20455;-79
2022/12/14 02:06:43;;;;;;;30.00;15.13;;;8.30;48.00;;;;;;5069757;28;20450;-78
2022/12/14 02:09:12;;;;;;;33.70;15.73;;;8.30;48.10;;;;;;5063410;28;20462;-79
2022/12/14 02:11:43;;;;;;;30.50;15.60;;;8.30;48.10;;;;;;5066269;28;20453;-80
2022/12/14 02:14:12;;;;;;;27.40;15.23;;;8.30;48.00;;;;;;5064575;28;20469;-80
2022/12/14 02:16:40;;;;;;;31.70;15.00;;;8.30;48.10;;;;;;5069992;28;20446;-80
2022/12/14 02:19:08;;;;;;;29.40;15.27;;;8.30;48.10;;;;;;5061713;28;20477;-79
2022/12/14 02:21:47;;;;;;;32.63;16.20;;;8.30;48.00;;;;;;5065955;28;20457;-80
2022/12/14 02:24:23;;;;;;;29.50;15.63;;;8.20;47.90;;;;;;5066794;28;20454;-79
2022/12/14 02:27:10;;;;;;;29.40;15.67;;;8.30;47.90;;;;;;5066212;28;20454;-79
2022/12/14 02:29:52;;;;;;;28.63;15.70;;;8.20;47.80;;;;;;5064057;28;20449;-80
2022/12/14 02:32:58;;;;;;;29.73;15.30;;;8.20;47.80;;;;;;5065438;28;20452;-79
2022/12/14 02:35:32;;;;;;;29.17;15.10;;;8.20;47.80;;;;;;4986041;28;20468;-80
2022/12/14 02:38:05;;;;;;;28.00;14.70;;;8.20;48.00;;;;;;5046017;28;20481;-79
2022/12/14 02:40:35;;;;;;;29.70;14.87;;;8.20;47.70;;;;;;5060050;28;20453;-78
2022/12/14 02:43:08;;;;;;;28.17;14.50;;;8.20;47.70;;;;;;5063683;28;20454;-79
2022/12/14 02:45:41;;;;;;;29.40;15.00;;;8.20;47.70;;;;;;5061532;28;20465;-79
2022/12/14 02:48:09;;;;;;;27.73;14.20;;;8.20;47.70;;;;;;5058892;28;20477;-79
2022/12/14 02:50:41;;;;;;;28.90;15.10;;;8.10;47.60;;;;;;5063612;28;20446;-79
2022/12/14 02:53:11;;;;;;;25.80;13.90;;;8.10;47.60;;;;;;5059940;28;20458;-80
2022/12/14 02:55:42;;;;;;;27.70;14.33;;;8.10;47.60;;;;;;5059448;28;20450;-80
2022/12/14 02:58:12;;;;;;;25.50;13.90;;;8.10;47.60;;;;;;5050536;28;20493;-79
2022/12/14 03:00:41;;;;;;;28.17;14.40;;;8.10;47.60;;;;;;5048964;28;20454;-80
2022/12/14 03:03:09;;;;;;;29.73;14.90;;;8.10;47.60;;;;;;5044915;28;20451;-78
2022/12/14 03:05:37;;;;;;;24.97;13.40;;;8.10;47.60;;;;;;5045682;28;20557;-80
2022/12/14 03:08:06;;;;;;;30.33;14.17;;;8.00;47.50;;;;;;5054748;28;20466;-79
2022/12/14 03:10:37;;;;;;;27.20;14.43;;;8.00;47.50;;;;;;5040451;28;20447;-80
2022/12/14 03:13:09;;;;;;;27.40;14.67;;;8.10;47.50;;;;;;5049570;28;20458;-79
2022/12/14 03:15:38;;;;;;;25.00;13.70;;;8.00;47.40;;;;;;5047058;28;20451;-80
2022/12/14 03:18:08;;;;;;;24.33;13.20;;;8.00;47.40;;;;;;5048722;28;20478;-79
2022/12/14 03:20:37;;;;;;;26.40;13.27;;;8.00;47.50;;;;;;5047730;28;20454;-80
2022/12/14 03:23:07;;;;;;;26.50;13.93;;;8.00;47.50;;;;;;5046794;28;20460;-78
2022/12/14 03:25:37;;;;;;;25.33;13.40;;;7.90;47.40;;;;;;5051649;28;20466;-78
2022/12/14 03:28:06;;;;;;;26.27;13.13;;;8.00;47.40;;;;;;5049017;28;20478;-79
2022/12/14 03:30:34;;;;;;;25.43;13.70;;;8.00;47.40;;;;;;5047198;28;20450;-80
2022/12/14 03:33:24;;;;;;;27.13;14.27;;;7.90;47.30;;;;;;5048638;28;20488;-80
2022/12/14 03:35:55;;;;;;;27.60;13.53;;;7.90;47.10;;;;;;5046955;28;20443;-80
2022/12/14 03:38:27;;;;;;;23.17;12.57;;;7.90;47.30;;;;;;5053208;28;20553;-79
2022/12/14 03:40:56;;;;;;;25.43;13.23;;;7.90;47.10;;;;;;5049088;28;20446;-80
2022/12/14 03:43:27;;;;;;;23.93;13.17;;;7.90;47.20;;;;;;5048784;28;20455;-80
2022/12/14 03:45:57;;;;;;;22.90;12.80;;;7.80;47.30;;;;;;5050830;28;20470;-80
2022/12/14 03:48:30;;;;;;;22.43;12.43;;;7.80;47.20;;;;;;5048737;28;20470;-80
2022/12/14 03:51:02;;;;;;;28.73;13.53;;;7.90;47.10;;;;;;5051741;28;20455;-80
2022/12/14 03:53:34;;;;;;;19.40;11.93;;;7.80;47.00;;;;;;5050254;28;21015;-80
2022/12/14 03:56:04;;;;;;;24.53;12.60;;;7.80;47.10;;;;;;5046596;28;20533;-78
2022/12/14 03:58:36;;;;;;;22.70;11.77;;;7.80;47.10;;;;;;5045776;28;20481;-78
2022/12/14 04:01:06;;;;;;;21.87;12.50;;;7.80;47.20;;;;;;5047520;28;20450;-79
2022/12/14 04:03:45;;;;;;;23.17;12.30;;;7.80;47.10;;;;;;5049379;28;20461;-79
2022/12/14 04:06:17;;;;;;;23.90;12.50;;;7.80;47.00;;;;;;5063033;28;20478;-78
2022/12/14 04:08:48;;;;;;;24.87;12.80;;;7.80;46.90;;;;;;5045594;28;20466;-79
2022/12/14 04:19:38;;;;;;;21.47;12.67;;;7.70;46.70;;;;;;5045981;28;20450;-80
2022/12/14 04:22:07;;;;;;;22.20;12.03;;;7.60;46.90;;;;;;5045474;28;20508;-79
2022/12/14 04:27:28;;;;;;;24.73;12.10;;;7.60;46.80;;;;;;5047428;28;20466;-80
2022/12/14 04:29:55;;;;;;;22.30;11.43;;;7.60;46.60;;;;;;5046368;28;20451;-79
2022/12/14 04:32:25;;;;;;;22.70;12.00;;;7.60;46.60;;;;;;5044245;28;20450;-79
2022/12/14 04:34:57;;;;;;;20.17;12.03;;;7.60;47.20;;;;;;5049928;28;20540;-81
2022/12/14 04:37:25;;;;;;;20.53;11.77;;;7.60;46.40;;;;;;5042532;28;20443;-80
2022/12/14 04:39:53;;;;;;;23.57;13.03;;;7.60;46.50;;;;;;5048412;28;20442;-80
2022/12/14 04:42:23;;;;;;;20.83;11.40;;;7.60;46.50;;;;;;5043095;28;20454;-79
2022/12/14 04:44:53;;;;;;;22.80;12.30;;;7.60;46.40;;;;;;5043165;28;20500;-79
2022/12/14 04:47:20;;;;;;;27.57;12.83;;;7.50;46.30;;;;;;5043498;28;20480;-79
2022/12/14 04:49:50;;;;;;;22.00;11.93;;;7.50;46.30;;;;;;5047047;28;20517;-79
2022/12/14 04:52:21;;;;;;;22.43;11.70;;;7.50;46.40;;;;;;5042398;28;20474;-79
2022/12/14 04:54:50;;;;;;;21.03;11.83;;;7.50;46.30;;;;;;5046925;28;20465;-79
2022/12/14 04:57:21;;;;;;;21.47;11.87;;;7.50;46.20;;;;;;5044214;28;20454;-79
2022/12/14 04:59:49;;;;;;;20.63;11.40;;;7.50;46.20;;;;;;5044003;28;20454;-80
2022/12/14 05:02:20;;;;;;;22.10;11.47;;;7.40;46.20;;;;;;5043966;28;20451;-79
2022/12/14 05:04:54;;;;;;;24.40;12.50;;;7.40;46.20;;;;;;5046023;28;20455;-80
2022/12/14 05:07:32;;;;;;;23.87;12.07;;;7.40;46.20;;;;;;5041157;28;21016;-78
2022/12/14 05:10:03;;;;;;;24.80;12.30;;;7.40;46.00;;;;;;5048850;28;20455;-79
2022/12/14 05:12:35;;;;;;;21.33;11.17;;;7.40;46.00;;;;;;5049477;28;20446;-80
2022/12/14 05:15:05;;;;;;;21.63;11.77;;;7.40;45.90;;;;;;5044385;28;20517;-78
2022/12/14 05:17:35;;;;;;;24.37;12.63;;;7.40;46.00;;;;;;5045863;28;20466;-80
2022/12/14 05:20:03;;;;;;;22.67;11.73;;;7.40;45.90;;;;;;5050637;28;20443;-79
2022/12/14 05:22:32;;;;;;;21.60;11.57;;;7.40;46.00;;;;;;5043570;28;20473;-79
2022/12/14 05:25:00;;;;;;;21.67;12.17;;;7.40;45.90;;;;;;5047848;28;20450;-80
2022/12/14 05:27:28;;;;;;;20.43;11.47;;;7.30;45.80;;;;;;5046852;28;20485;-79
2022/12/14 05:29:57;;;;;;;21.80;11.93;;;7.30;45.80;;;;;;5047702;28;20454;-80
2022/12/14 05:32:24;;;;;;;23.67;12.37;;;7.30;45.80;;;;;;5043651;28;20466;-77
2022/12/14 05:34:53;;;;;;;25.07;11.47;;;7.30;45.80;;;;;;5044961;28;20496;-80
2022/12/14 05:37:21;;;;;;;22.53;11.67;;;7.30;45.80;;;;;;5039338;28;20451;-80
2022/12/14 05:39:50;;;;;;;19.03;11.37;;;7.30;46.50;;;;;;5044356;28;20451;-80
2022/12/14 05:42:18;;;;;;;21.20;11.47;;;7.30;46.00;;;;;;5047784;28;20450;-80
2022/12/14 05:44:46;;;;;;;19.70;10.80;;;7.30;46.00;;;;;;5048653;28;20454;-80
2022/12/14 05:47:14;;;;;;;18.70;10.47;;;7.30;46.20;;;;;;5046658;28;20469;-80
2022/12/14 05:49:42;;;;;;;21.87;11.40;;;7.30;46.20;;;;;;5042477;28;20466;-81
2022/12/14 05:52:11;;;;;;;20.50;11.07;;;7.30;46.20;;;;;;5041376;28;20460;-80
2022/12/14 05:54:39;;;;;;;21.00;11.57;;;7.30;46.40;;;;;;5042816;28;20467;-80
2022/12/14 05:57:09;;;;;;;18.37;10.23;;;7.30;46.40;;;;;;5042615;28;20461;-80
2022/12/14 05:59:37;;;;;;;19.23;10.10;;;7.30;46.40;;;;;;5049777;28;20456;-81
2022/12/14 06:02:06;;;;;;;18.60;10.30;;;7.30;46.50;;;;;;5043851;28;20525;-81
2022/12/14 06:04:34;;;;;;;18.37;10.20;;;7.30;46.40;;;;;;5046046;28;20453;-80
2022/12/14 06:07:02;;;;;;;17.40;10.20;;;7.30;46.60;;;;;;5040712;28;20478;-79
2022/12/14 06:09:30;;;;;;;18.10;10.63;;;7.30;46.60;;;;;;5045478;28;20461;-80
2022/12/14 06:11:58;;;;;;;19.10;9.87;;;7.30;46.70;;;;;;5045629;28;20450;-81
2022/12/14 06:14:28;;;;;;;19.30;10.40;;;7.30;46.70;;;;;;5047933;28;20446;-80
2022/12/14 06:16:56;;;;;;;18.47;10.10;;;7.30;46.70;;;;;;5048578;28;20443;-80
2022/12/14 06:19:23;;;;;;;18.30;10.50;;;7.20;46.80;;;;;;5041225;28;20471;-79
2022/12/14 06:21:51;;;;;;;19.80;10.70;;;7.20;46.80;;;;;;5039783;28;20507;-81
2022/12/14 06:24:19;;;;;;;16.20;9.60;;;7.20;46.80;;;;;;5051444;28;20452;-82
2022/12/14 06:26:48;;;;;;;17.80;9.30;;;7.20;46.80;;;;;;5065202;28;20469;-80
2022/12/14 06:29:17;;;;;;;19.40;10.63;;;7.20;46.70;;;;;;5062351;28;20474;-80
2022/12/14 06:31:46;;;;;;;19.00;9.73;;;7.20;46.80;;;;;;5063179;28;20453;-81
2022/12/14 06:34:16;;;;;;;19.57;10.27;;;7.20;46.90;;;;;;5060508;28;20419;-80
2022/12/14 06:36:45;;;;;;;14.90;8.90;;;7.20;46.90;;;;;;5064409;28;20457;-81
2022/12/14 06:39:14;;;;;;;17.53;9.80;;;7.20;46.80;;;;;;5071610;28;20474;-80
2022/12/14 06:41:42;;;;;;;19.00;10.80;;;7.10;46.80;;;;;;5072734;28;20517;-81
2022/12/14 06:44:10;;;;;;;18.57;10.10;;;7.10;46.90;;;;;;5066571;28;20438;-79
2022/12/14 06:46:39;;;;;;;16.53;10.07;;;7.10;46.90;;;;;;5069785;28;20472;-80
2022/12/14 06:49:12;;;;;;;16.47;9.57;;;7.10;46.90;;;;;;5067256;28;20443;-81
2022/12/14 06:51:40;;;;;;;16.50;9.70;;;7.10;46.80;;;;;;5072218;28;20477;-80
2022/12/14 06:54:09;;;;;;;17.33;9.47;;;7.10;46.90;;;;;;5071682;28;20780;-79
2022/12/14 06:56:37;;;;;;;14.63;9.00;;;7.10;46.90;;;;;;5070662;28;20458;-80
2022/12/14 06:59:05;;;;;;;16.83;9.10;;;7.10;46.90;;;;;;5068910;28;20458;-80
2022/12/14 07:01:33;;;;;;;15.50;8.67;;;7.10;46.90;;;;;;5074911;28;20460;-79
2022/12/14 07:04:01;;;;;;;16.60;9.50;;;7.10;46.80;;;;;;5070513;28;20451;-80
2022/12/14 07:06:32;;;;;;;17.97;9.67;;;7.10;46.90;;;;;;5066193;28;20474;-79
2022/12/14 07:09:00;;;;;;;20.73;9.20;;;7.10;46.90;;;;;;5053784;28;20498;-79
2022/12/14 07:11:29;;;;;;;15.63;9.40;;;7.10;47.00;;;;;;5054570;28;20446;-78
2022/12/14 07:13:59;;;;;;;16.97;9.97;;;7.10;46.90;;;;;;5053239;28;20457;-79
2022/12/14 07:16:28;;;;;;;16.33;9.13;;;7.10;47.00;;;;;;5049706;28;20467;-80
2022/12/14 07:18:56;;;;;;;15.33;9.10;;;7.10;46.80;;;;;;5049897;28;20477;-80
2022/12/14 07:21:24;;;;;;;16.57;9.20;;;7.00;46.90;;;;;;5052788;28;20458;-79
2022/12/14 07:23:53;;;;;;;15.23;9.10;;;7.00;46.90;;;;;;5044935;28;20459;-80
2022/12/14 07:26:22;;;;;;;15.90;8.53;;;7.00;46.90;;;;;;5049615;28;20454;-79
2022/12/14 07:28:50;;;;;;;15.23;9.30;;;7.00;46.90;;;;;;5051183;28;20501;-79
2022/12/14 07:31:19;;;;;;;16.50;8.80;;;7.00;46.90;;;;;;5044129;28;20464;-79
2022/12/14 07:33:47;;;;;;;16.43;8.63;;;7.00;46.90;;;;;;5046310;28;20550;-79
2022/12/14 07:36:16;;;;;;;15.60;8.20;;;7.00;47.00;;;;;;5045801;28;20456;-79
2022/12/14 07:38:48;;;;;;;14.67;8.57;;;7.00;46.90;;;;;;5050136;28;20473;-79
2022/12/14 07:41:19;;;;;;;14.93;8.37;;;7.00;46.70;;;;;;5052222;28;20450;-80
2022/12/14 07:43:50;;;;;;;13.03;8.70;;;7.00;46.80;;;;;;5056294;28;20455;-78
2022/12/14 07:46:19;;;;;;;17.33;9.30;;;7.00;47.00;;;;;;5046942;28;20451;-78
2022/12/14 07:48:48;;;;;;;16.40;8.97;;;7.00;47.10;;;;;;5049972;28;20513;-78
2022/12/14 07:51:17;;;;;;;13.80;8.40;;;7.00;47.00;;;;;;5049415;28;20455;-78
2022/12/14 07:53:45;;;;;;;15.57;9.40;;;7.00;47.00;;;;;;5050381;28;20450;-78
2022/12/14 07:56:13;;;;;;;13.60;8.57;;;7.00;47.00;;;;;;5052086;28;20463;-78
2022/12/14 07:58:43;;;;;;;14.90;9.13;;;7.00;47.00;;;;;;5056668;28;20458;-78
2022/12/14 08:01:12;;;;;;;14.63;8.23;;;7.00;47.00;;;;;;5052101;28;20447;-79
2022/12/14 08:03:40;;;;;;;18.60;9.03;;;7.00;46.80;;;;;;5048064;28;20459;-78
2022/12/14 08:06:08;;;;;;;16.10;8.93;;;7.00;47.00;;;;;;5046911;28;20463;-78
2022/12/14 08:08:36;;;;;;;14.20;8.13;;;7.00;47.00;;;;;;5047987;28;20489;-78
2022/12/14 08:11:04;;;;;;;14.83;8.97;;;7.00;47.00;;;;;;5053644;28;20477;-78
2022/12/14 08:13:33;;;;;;;16.03;8.53;;;7.00;47.00;;;;;;5049601;28;20454;-78
2022/12/14 08:16:05;;;;;;;14.90;8.63;;;7.00;46.90;;;;;;5046775;28;20455;-78
2022/12/14 08:18:33;;;;;;;12.60;7.93;;;7.00;47.00;;;;;;5048533;28;20544;-78
2022/12/14 08:21:01;;;;;;;14.00;8.57;;;7.00;46.90;;;;;;5045194;28;20451;-78
2022/12/14 08:23:29;;;;;;;13.00;8.27;;;7.00;47.00;;;;;;5051547;28;20450;-78
2022/12/14 08:25:58;;;;;;;15.23;8.83;;;7.00;47.10;;;;;;5049244;28;20450;-78
2022/12/14 08:28:27;;;;;;;12.50;7.70;;;7.10;47.20;;;;;;5043699;28;20510;-78
2022/12/14 08:30:54;;;;;;;14.03;8.80;;;7.20;47.20;;;;;;5051419;28;20460;-77
2022/12/14 08:33:23;;;;;;;15.83;8.60;;;7.10;47.00;;;;;;5048742;28;20435;-78
2022/12/14 08:35:51;;;;;;;17.27;8.80;;;7.20;47.20;;;;;;5045555;28;20442;-78
2022/12/14 08:38:19;;;;;;;17.07;8.37;;;7.20;47.30;;;;;;5049673;28;20462;-78
2022/12/14 08:40:47;;;;;;;13.93;8.50;;;7.20;47.20;;;;;;5053270;28;20455;-78
2022/12/14 08:43:15;;;;;;;14.73;8.90;;;7.30;47.50;;;;;;5049982;28;20453;-79
2022/12/14 08:45:50;;;;;;;13.00;8.30;;;7.40;47.60;;;;;;5051380;28;20445;-78
2022/12/14 08:48:17;;;;;;;16.47;8.07;;;7.50;47.80;;;;;;5050754;28;20470;-77
2022/12/14 08:50:47;;;;;;;13.27;8.00;;;7.60;47.90;;;;;;5047693;28;20461;-79
2022/12/14 08:53:16;;;;;;;16.27;8.17;;;7.70;48.80;;;;;;5052757;28;20455;-78
2022/12/14 08:55:45;;;;;;;11.93;8.07;;;7.90;48.30;;;;;;5046087;28;20447;-79
2022/12/14 08:58:12;;;;;;;14.93;8.70;;;8.10;48.50;;;;;;5053591;28;20459;-79
2022/12/14 09:00:42;;;;;;;14.07;8.63;;;8.30;48.50;;;;;;5054272;28;20435;-78
2022/12/14 09:03:10;;;;;;;12.83;8.50;;;8.40;48.70;;;;;;5050578;28;20427;-79
2022/12/14 09:05:38;;;;;;;16.33;8.73;;;8.50;48.80;;;;;;5057894;28;20458;-79
2022/12/14 09:08:08;;;;;;;14.63;8.03;;;8.50;48.80;;;;;;5045378;28;20659;-79
2022/12/14 09:10:36;;;;;;;15.43;9.13;;;8.60;49.00;;;;;;5044109;28;20461;-78
2022/12/14 09:13:04;;;;;;;15.40;8.90;;;8.60;49.00;;;;;;5050088;28;20450;-78
2022/12/14 09:15:32;;;;;;;15.93;9.20;;;8.60;49.20;;;;;;5051138;28;20452;-79
2022/12/14 09:18:00;;;;;;;14.27;9.10;;;8.70;49.20;;;;;;5050134;28;20455;-77
2022/12/14 09:20:27;;;;;;;14.90;8.97;;;8.70;49.40;;;;;;5057340;28;20426;-78
2022/12/14 09:22:56;;;;;;;17.10;9.17;;;8.80;49.50;;;;;;5051332;28;20458;-79
2022/12/14 09:25:25;;;;;;;18.17;9.40;;;8.90;49.60;;;;;;5046403;28;20542;-78
2022/12/14 09:27:53;;;;;;;14.57;8.60;;;8.90;49.50;;;;;;5052169;28;20462;-79
2022/12/14 09:30:21;;;;;;;18.70;9.13;;;8.90;49.50;;;;;;5053501;28;20438;-78
2022/12/14 09:32:53;;;;;;;17.43;10.00;;;8.90;49.50;;;;;;5054990;28;20442;-78
2022/12/14 09:35:22;;;;;;;17.30;9.53;;;8.90;49.70;;;;;;5048763;28;20430;-80
2022/12/14 09:37:50;;;;;;;15.63;8.83;;;8.90;49.70;;;;;;5055979;28;20451;-78
2022/12/14 09:40:18;;;;;;;16.30;9.33;;;8.90;49.70;;;;;;5058052;28;20431;-78
2022/12/14 09:42:53;;;;;;;14.57;9.37;;;8.90;49.70;;;;;;5048323;28;20453;-77
2022/12/14 09:45:23;;;;;;;15.07;8.93;;;9.00;49.90;;;;;;5044949;28;20442;-79
2022/12/14 09:47:54;;;;;;;16.07;9.13;;;9.00;49.80;;;;;;5051342;28;20462;-78
2022/12/14 09:50:23;;;;;;;15.73;9.53;;;9.00;50.00;;;;;;5049648;28;20485;-78
2022/12/14 09:52:51;;;;;;;16.97;9.57;;;9.10;50.10;;;;;;5039731;28;20427;-79
2022/12/14 09:55:21;;;;;;;15.90;8.70;;;9.20;50.30;;;;;;5043250;28;20452;-78
2022/12/14 09:57:53;;;;;;;16.80;9.97;;;9.40;50.40;;;;;;5051392;28;20450;-78
2022/12/14 10:00:21;;;;;;;13.23;8.37;;;9.60;50.60;;;;;;5043456;28;20446;-79
2022/12/14 10:02:59;;;;;;;15.53;8.57;;;9.90;50.90;;;;;;5045850;28;20441;-78
2022/12/14 10:05:57;;;;;;;15.30;9.43;;;10.20;50.10;;;;;;5047462;28;20449;-77
2022/12/14 10:08:26;;;;;;;15.10;9.10;;;10.50;50.00;;;;;;5051613;28;20458;-78
2022/12/14 10:10:59;;;;;;;14.83;9.83;;;10.80;50.00;;;;;;5055973;28;20545;-77
2022/12/14 10:13:34;;;;;;;14.70;9.67;;;11.00;49.80;;;;;;5055881;28;20442;-78
2022/12/14 10:16:07;;;;;;;17.33;9.80;;;11.30;49.90;;;;;;5061086;28;20524;-77
2022/12/14 10:18:53;;;;;;;17.17;9.77;;;11.60;50.00;;;;;;5054061;28;20459;-79
2022/12/14 10:21:38;;;;;;;14.03;9.03;;;11.80;50.10;;;;;;5052336;28;20439;-78
2022/12/14 10:24:07;;;;;;;15.60;9.53;;;12.10;50.40;;;;;;5058836;28;20446;-77
2022/12/14 10:26:38;;;;;;;14.33;8.97;;;12.30;50.50;;;;;;5055839;28;20453;-78
2022/12/14 10:29:10;;;;;;;14.17;8.60;;;12.60;50.70;;;;;;5053376;28;20502;-77
2022/12/14 10:31:40;;;;;;;18.23;10.00;;;12.80;50.80;;;;;;5046189;28;20447;-78
2022/12/14 10:34:17;;;;;;;14.90;9.80;;;13.00;51.10;;;;;;5053017;28;20494;-78
2022/12/14 10:36:51;;;;;;;13.30;9.37;;;13.30;51.30;;;;;;5047581;28;20541;-79
2022/12/14 10:39:30;;;;;;;14.60;9.40;;;13.50;51.50;;;;;;5057753;28;20473;-78
2022/12/14 10:42:00;;;;;;;15.20;10.17;;;13.80;51.60;;;;;;5057738;28;20449;-79
2022/12/14 10:44:34;;;;;;;14.83;9.47;;;14.00;51.60;;;;;;5058100;28;20450;-79
2022/12/14 10:47:04;;;;;;;18.47;10.80;;;14.30;51.70;;;;;;5056264;28;20447;-78
2022/12/14 10:49:36;;;;;;;17.13;9.93;;;14.60;52.00;;;;;;5050433;28;20486;-78
2022/12/14 10:52:05;;;;;;;16.13;10.33;;;14.80;52.00;;;;;;5056300;28;20477;-80
2022/12/14 10:54:36;;;;;;;14.90;10.27;;;15.00;51.90;;;;;;5060620;28;20470;-80
2022/12/14 10:57:03;;;;;;;15.00;10.43;;;15.30;51.90;;;;;;5051592;28;20529;-79
2022/12/14 10:59:36;;;;;;;16.20;9.93;;;15.50;52.00;;;;;;5059860;28;20940;-79
2022/12/14 11:02:15;;;;;;;14.83;10.40;;;15.80;52.00;;;;;;5054211;28;20438;-80
2022/12/14 11:04:47;;;;;;;17.73;9.63;;;16.00;52.10;;;;;;5060433;28;20449;-79
2022/12/14 11:07:16;;;;;;;16.73;10.37;;;16.30;52.10;;;;;;5055316;28;20454;-79
2022/12/14 11:09:44;;;;;;;15.80;10.87;;;16.50;52.10;;;;;;5051956;28;20469;-80
2022/12/14 11:12:17;;;;;;;15.90;10.53;;;16.80;52.00;;;;;;5055559;28;20455;-80
2022/12/14 11:14:55;;;;;;;15.10;9.87;;;17.00;51.90;;;;;;5058428;28;20442;-80
2022/12/14 11:17:34;;;;;;;16.37;10.60;;;17.30;51.80;;;;;;5056178;28;20453;-81
2022/12/14 11:20:21;;;;;;;16.37;10.70;;;17.50;51.50;;;;;;5048461;28;20534;-79
2022/12/14 11:22:50;;;;;;;14.73;10.70;;;17.70;51.10;;;;;;5054330;28;20553;-79
2022/12/14 11:25:33;;;;;;;17.23;10.10;;;17.90;51.20;;;;;;5059427;28;20443;-79
2022/12/14 11:28:03;;;;;;;15.50;10.60;;;18.20;50.60;;;;;;5057511;28;20473;-79
2022/12/14 11:30:33;;;;;;;15.30;10.87;;;18.30;50.80;;;;;;5055549;28;20466;-79
2022/12/14 11:33:01;;;;;;;13.23;9.87;;;18.60;51.00;;;;;;5060979;28;20434;-84
2022/12/14 11:35:28;;;;;;;14.50;9.87;;;18.70;50.50;;;;;;5059051;28;20438;-84
2022/12/14 11:37:58;;;;;;;16.00;10.33;;;18.90;50.60;;;;;;5051909;28;20471;-86
2022/12/14 11:40:26;;;;;;;13.20;9.67;;;19.10;50.30;;;;;;5051838;28;20435;-84
2022/12/14 11:42:58;;;;;;;13.83;9.67;;;19.30;50.30;;;;;;5059798;28;20442;-84
2022/12/14 11:45:30;;;;;;;14.60;10.73;;;19.50;50.10;;;;;;5050485;28;20435;-85
2022/12/14 11:48:17;;;;;;;15.40;10.47;;;19.60;50.00;;;;;;5059531;28;20451;-85
2022/12/14 11:50:46;;;;;;;14.83;10.53;;;19.80;49.50;;;;;;5054339;28;20493;-84
2022/12/14 11:53:14;;;;;;;13.80;9.60;;;20.00;49.90;;;;;;5061109;28;20442;-85
2022/12/14 11:55:44;;;;;;;12.13;9.60;;;20.20;49.80;;;;;;5060216;28;20458;-85
2022/12/14 11:58:14;;;;;;;18.20;9.30;;;20.40;49.70;;;;;;5064144;28;20458;-82
2022/12/14 12:00:44;;;;;;;13.40;9.53;;;20.50;49.40;;;;;;5065866;28;20446;-85
2022/12/14 12:03:18;;;;;;;15.13;9.70;;;20.60;50.10;;;;;;5061875;28;20476;-85
2022/12/14 12:05:46;;;;;;;13.10;9.60;;;20.80;49.30;;;;;;5056933;28;20960;-84
2022/12/14 12:08:23;;;;;;;12.23;8.97;;;20.90;49.20;;;;;;5062228;28;20463;-84
2022/12/14 12:10:52;;;;;;;12.70;9.67;;;21.10;49.10;;;;;;5055558;28;20463;-85
2022/12/14 12:13:23;;;;;;;12.27;9.30;;;21.30;49.40;;;;;;5057792;28;20438;-85
2022/12/14 12:15:53;;;;;;;14.03;10.10;;;21.40;49.10;;;;;;5053865;28;20506;-85
2022/12/14 12:18:26;;;;;;;11.77;8.33;;;21.50;49.10;;;;;;5063841;28;20529;-87
2022/12/14 12:21:01;;;;;;;11.47;8.77;;;21.60;48.80;;;;;;5062376;28;20493;-87
2022/12/14 12:23:32;;;;;;;11.00;9.33;;;21.80;48.70;;;;;;5061852;28;20442;-85
2022/12/14 12:26:00;;;;;;;13.43;9.63;;;21.80;47.90;;;;;;5060649;28;20447;-87
2022/12/14 12:28:31;;;;;;;10.10;8.80;;;21.90;47.90;;;;;;5062602;28;20496;-85
2022/12/14 12:31:00;;;;;;;13.90;9.23;;;22.10;47.20;;;;;;5059260;28;20442;-85
2022/12/14 12:33:43;;;;;;;11.80;8.83;;;22.20;47.00;;;;;;5064662;28;20452;-85
2022/12/14 12:36:11;;;;;;;11.57;9.00;;;22.30;46.50;;;;;;5055830;28;20442;-85
2022/12/14 12:38:47;;;;;;;12.67;9.40;;;22.40;46.60;;;;;;5062319;28;20463;-86
2022/12/14 12:41:32;;;;;;;11.47;9.07;;;22.50;46.30;;;;;;5053698;28;20811;-84
2022/12/14 12:44:05;;;;;;;12.13;8.70;;;22.60;46.00;;;;;;5058320;28;20419;-86
2022/12/14 12:46:34;;;;;;;11.57;8.60;;;22.60;46.10;;;;;;5056788;28;20457;-85
2022/12/14 12:49:24;;;;;;;12.00;9.00;;;22.70;46.00;;;;;;5052688;28;20442;-85
2022/12/14 12:51:54;;;;;;;11.17;8.50;;;22.80;46.10;;;;;;5060427;28;20394;-82
2022/12/14 12:54:26;;;;;;;12.87;9.10;;;22.80;45.90;;;;;;5062814;28;20446;-82
2022/12/14 12:56:56;;;;;;;10.53;8.63;;;22.90;45.90;;;;;;5059171;28;20439;-86
2022/12/14 12:59:26;;;;;;;11.90;8.80;;;22.90;45.80;;;;;;5058055;28;20470;-84
2022/12/14 13:01:56;;;;;;;9.83;8.07;;;23.00;45.80;;;;;;5049969;28;20467;-84
2022/12/14 13:04:32;;;;;;;8.40;7.60;;;23.10;46.10;;;;;;5058423;28;20454;-83
2022/12/14 13:07:02;;;;;;;9.87;8.37;;;23.10;45.70;;;;;;5055726;28;20439;-84
2022/12/14 13:09:37;;;;;;;8.80;7.90;;;23.20;45.80;;;;;;5052281;28;20493;-84
2022/12/14 13:12:06;;;;;;;9.93;8.60;;;23.20;45.70;;;;;;5056592;28;21037;-86
2022/12/14 13:14:35;;;;;;;11.90;9.07;;;23.20;45.50;;;;;;5044225;28;20441;-83
2022/12/14 13:17:04;;;;;;;16.90;8.23;;;23.30;45.50;;;;;;5059269;28;20446;-85
2022/12/14 13:19:37;;;;;;;11.70;8.60;;;23.20;45.40;;;;;;5057038;28;20551;-83